sensor_id;sensor_type;location;lat;lon;timestamp;temperature;humidity
31619;DHT22;18230;51.502;7.108;2023-05-01T00:03:45;12.20;99.90
31619;DHT22;18230;51.502;7.108;2023-05-01T00:08:46;12.20;99.90
31619;DHT22;18230;51.502;7.108;2023-05-01T00:13:47;12.20;99.90
31619;DHT22;18230;51.502;7.108;2023-05-01T00:18:47;12.20;99.90
31619;DHT22;18230;51.502;7.108;2023-05-01T00:23:48;12.30;99.90
31619;DHT22;18230;51.502;7.108;2023-05-01T00:28:49;12.20;99.90
31619;DHT22;18230;51.502;7.108;2023-05-01T00:33:50;12.10;99.90
31619;DHT22;18230;51.502;7.108;2023-05-01T00:38:51;12.10;99.90
31619;DHT22;18230;51.502;7.108;2023-05-01T00:43:51;12.00;99.90
31619;DHT22;18230;51.502;7.108;2023-05-01T00:48:52;12.00;99.90
31619;DHT22;18230;51.502;7.108;2023-05-01T00:53:54;11.90;99.90
31619;DHT22;18230;51.502;7.108;2023-05-01T00:58:55;11.80;99.90
31619;DHT22;18230;51.502;7.108;2023-05-01T01:03:56;11.70;99.90
31619;DHT22;18230;51.502;7.108;2023-05-01T01:14:07;11.60;99.90
31619;DHT22;18230;51.502;7.108;2023-05-01T01:35:26;11.20;99.90
31619;DHT22;18230;51.502;7.108;2023-05-01T01:40:36;11.20;99.90
31619;DHT22;18230;51.502;7.108;2023-05-01T01:45:40;11.10;99.90
31619;DHT22;18230;51.502;7.108;2023-05-01T01:50:44;11.10;99.90
31619;DHT22;18230;51.502;7.108;2023-05-01T01:55:47;11.10;99.90
31619;DHT22;18230;51.502;7.108;2023-05-01T02:00:49;11.10;99.90
31619;DHT22;18230;51.502;7.108;2023-05-01T02:05:51;11.20;99.90
31619;DHT22;18230;51.502;7.108;2023-05-01T02:10:54;11.20;99.90
31619;DHT22;18230;51.502;7.108;2023-05-01T02:15:59;11.20;99.90
31619;DHT22;18230;51.502;7.108;2023-05-01T02:21:03;11.20;99.90
31619;DHT22;18230;51.502;7.108;2023-05-01T02:26:05;11.20;99.90
31619;DHT22;18230;51.502;7.108;2023-05-01T02:31:09;11.10;99.90
31619;DHT22;18230;51.502;7.108;2023-05-01T02:36:10;11.10;99.90
31619;DHT22;18230;51.502;7.108;2023-05-01T02:41:14;11.10;99.90
31619;DHT22;18230;51.502;7.108;2023-05-01T02:46:16;11.20;99.90
31619;DHT22;18230;51.502;7.108;2023-05-01T02:51:19;11.20;99.90
31619;DHT22;18230;51.502;7.108;2023-05-01T02:56:20;11.10;99.90
31619;DHT22;18230;51.502;7.108;2023-05-01T03:01:22;11.20;99.90
31619;DHT22;18230;51.502;7.108;2023-05-01T03:06:22;11.20;99.90
31619;DHT22;18230;51.502;7.108;2023-05-01T03:11:23;11.20;99.90
31619;DHT22;18230;51.502;7.108;2023-05-01T03:16:24;11.20;99.90
31619;DHT22;18230;51.502;7.108;2023-05-01T03:21:24;11.20;99.90
31619;DHT22;18230;51.502;7.108;2023-05-01T03:26:26;11.20;99.90
31619;DHT22;18230;51.502;7.108;2023-05-01T03:31:26;11.20;99.90
31619;DHT22;18230;51.502;7.108;2023-05-01T03:36:30;11.10;99.90
31619;DHT22;18230;51.502;7.108;2023-05-01T03:41:33;11.10;99.90
31619;DHT22;18230;51.502;7.108;2023-05-01T03:46:33;11.10;99.90
31619;DHT22;18230;51.502;7.108;2023-05-01T03:51:34;11.10;99.90
31619;DHT22;18230;51.502;7.108;2023-05-01T03:56:35;11.00;99.90
31619;DHT22;18230;51.502;7.108;2023-05-01T04:01:36;11.00;99.90
31619;DHT22;18230;51.502;7.108;2023-05-01T04:06:37;11.00;99.90
31619;DHT22;18230;51.502;7.108;2023-05-01T04:11:38;10.90;99.90
31619;DHT22;18230;51.502;7.108;2023-05-01T04:16:39;10.90;99.90
31619;DHT22;18230;51.502;7.108;2023-05-01T04:21:40;10.80;99.90
31619;DHT22;18230;51.502;7.108;2023-05-01T04:26:41;10.90;99.90
31619;DHT22;18230;51.502;7.108;2023-05-01T04:31:42;10.90;99.90
31619;DHT22;18230;51.502;7.108;2023-05-01T04:36:43;10.90;99.90
31619;DHT22;18230;51.502;7.108;2023-05-01T04:41:44;10.80;99.90
31619;DHT22;18230;51.502;7.108;2023-05-01T04:46:45;10.80;99.90
31619;DHT22;18230;51.502;7.108;2023-05-01T04:51:45;10.70;99.90
31619;DHT22;18230;51.502;7.108;2023-05-01T04:56:46;10.70;99.90
31619;DHT22;18230;51.502;7.108;2023-05-01T05:01:47;10.70;99.90
31619;DHT22;18230;51.502;7.108;2023-05-01T05:06:48;10.70;99.90
31619;DHT22;18230;51.502;7.108;2023-05-01T05:11:48;10.70;99.90
31619;DHT22;18230;51.502;7.108;2023-05-01T05:16:49;10.70;99.90
31619;DHT22;18230;51.502;7.108;2023-05-01T05:21:51;10.70;99.90
31619;DHT22;18230;51.502;7.108;2023-05-01T05:26:51;10.80;99.90
31619;DHT22;18230;51.502;7.108;2023-05-01T05:31:52;10.90;99.90
31619;DHT22;18230;51.502;7.108;2023-05-01T05:36:53;11.20;99.90
31619;DHT22;18230;51.502;7.108;2023-05-01T05:41:54;11.50;99.90
31619;DHT22;18230;51.502;7.108;2023-05-01T05:46:54;11.50;99.90
31619;DHT22;18230;51.502;7.108;2023-05-01T05:51:55;11.60;99.90
31619;DHT22;18230;51.502;7.108;2023-05-01T05:56:56;11.90;99.90
31619;DHT22;18230;51.502;7.108;2023-05-01T06:01:57;12.30;99.90
31619;DHT22;18230;51.502;7.108;2023-05-01T06:06:58;12.60;99.90
31619;DHT22;18230;51.502;7.108;2023-05-01T06:11:59;12.70;99.90
31619;DHT22;18230;51.502;7.108;2023-05-01T06:17:04;12.90;99.90
31619;DHT22;18230;51.502;7.108;2023-05-01T06:22:05;13.10;99.90
31619;DHT22;18230;51.502;7.108;2023-05-01T06:27:07;13.10;99.90
31619;DHT22;18230;51.502;7.108;2023-05-01T06:32:07;13.20;99.90
31619;DHT22;18230;51.502;7.108;2023-05-01T06:37:08;13.30;99.90
31619;DHT22;18230;51.502;7.108;2023-05-01T06:42:09;13.40;99.90
31619;DHT22;18230;51.502;7.108;2023-05-01T06:47:12;13.60;99.90
31619;DHT22;18230;51.502;7.108;2023-05-01T06:52:13;13.80;99.90
31619;DHT22;18230;51.502;7.108;2023-05-01T06:57:13;14.00;99.90
31619;DHT22;18230;51.502;7.108;2023-05-01T07:02:14;14.10;99.90
31619;DHT22;18230;51.502;7.108;2023-05-01T07:07:15;14.40;99.90
31619;DHT22;18230;51.502;7.108;2023-05-01T07:12:16;14.60;99.90
31619;DHT22;18230;51.502;7.108;2023-05-01T07:17:16;14.80;99.90
31619;DHT22;18230;51.502;7.108;2023-05-01T07:22:18;15.00;99.90
31619;DHT22;18230;51.502;7.108;2023-05-01T07:27:19;15.20;99.90
31619;DHT22;18230;51.502;7.108;2023-05-01T07:32:20;15.30;99.90
31619;DHT22;18230;51.502;7.108;2023-05-01T07:37:20;15.40;99.90
31619;DHT22;18230;51.502;7.108;2023-05-01T07:42:21;15.60;99.90
31619;DHT22;18230;51.502;7.108;2023-05-01T07:47:22;16.00;99.90
31619;DHT22;18230;51.502;7.108;2023-05-01T07:52:23;16.20;99.90
31619;DHT22;18230;51.502;7.108;2023-05-01T07:57:27;16.20;99.90
31619;DHT22;18230;51.502;7.108;2023-05-01T08:02:28;16.40;99.90
31619;DHT22;18230;51.502;7.108;2023-05-01T08:07:29;16.50;99.90
31619;DHT22;18230;51.502;7.108;2023-05-01T08:12:30;16.70;99.90
31619;DHT22;18230;51.502;7.108;2023-05-01T08:17:31;17.00;99.90
31619;DHT22;18230;51.502;7.108;2023-05-01T08:22:31;17.20;99.90
31619;DHT22;18230;51.502;7.108;2023-05-01T08:27:32;17.50;99.90
31619;DHT22;18230;51.502;7.108;2023-05-01T08:32:33;17.60;99.90
31619;DHT22;18230;51.502;7.108;2023-05-01T08:37:34;17.90;99.90
31619;DHT22;18230;51.502;7.108;2023-05-01T08:42:35;18.00;99.90
31619;DHT22;18230;51.502;7.108;2023-05-01T08:47:39;18.10;99.90
31619;DHT22;18230;51.502;7.108;2023-05-01T08:52:40;18.40;99.90
31619;DHT22;18230;51.502;7.108;2023-05-01T08:57:45;18.50;99.90
31619;DHT22;18230;51.502;7.108;2023-05-01T09:02:47;18.50;99.90
31619;DHT22;18230;51.502;7.108;2023-05-01T09:07:48;18.70;99.90
31619;DHT22;18230;51.502;7.108;2023-05-01T09:12:54;18.90;99.90
31619;DHT22;18230;51.502;7.108;2023-05-01T09:18:01;19.10;99.90
31619;DHT22;18230;51.502;7.108;2023-05-01T09:23:03;19.10;99.90
31619;DHT22;18230;51.502;7.108;2023-05-01T09:28:04;19.00;99.90
31619;DHT22;18230;51.502;7.108;2023-05-01T09:33:11;19.00;99.90
31619;DHT22;18230;51.502;7.108;2023-05-01T09:38:16;19.20;99.90
31619;DHT22;18230;51.502;7.108;2023-05-01T09:43:25;19.40;99.90
31619;DHT22;18230;51.502;7.108;2023-05-01T09:48:26;19.80;99.90
31619;DHT22;18230;51.502;7.108;2023-05-01T09:53:38;20.20;99.90
31619;DHT22;18230;51.502;7.108;2023-05-01T09:58:39;20.40;99.90
31619;DHT22;18230;51.502;7.108;2023-05-01T10:03:42;20.50;99.90
31619;DHT22;18230;51.502;7.108;2023-05-01T10:08:48;20.80;99.90
31619;DHT22;18230;51.502;7.108;2023-05-01T10:14:08;21.00;99.90
31619;DHT22;18230;51.502;7.108;2023-05-01T10:19:10;21.20;97.30
31619;DHT22;18230;51.502;7.108;2023-05-01T10:24:11;21.50;97.00
31619;DHT22;18230;51.502;7.108;2023-05-01T10:29:12;21.60;96.40
31619;DHT22;18230;51.502;7.108;2023-05-01T10:34:15;21.70;95.30
31619;DHT22;18230;51.502;7.108;2023-05-01T10:39:36;21.80;93.80
31619;DHT22;18230;51.502;7.108;2023-05-01T10:44:37;21.70;91.90
31619;DHT22;18230;51.502;7.108;2023-05-01T10:50:05;22.10;92.50
31619;DHT22;18230;51.502;7.108;2023-05-01T10:55:32;21.90;92.30
31619;DHT22;18230;51.502;7.108;2023-05-01T11:00:33;21.40;93.10
31619;DHT22;18230;51.502;7.108;2023-05-01T11:21:41;20.90;92.60
31619;DHT22;18230;51.502;7.108;2023-05-01T11:26:41;21.00;91.60
31619;DHT22;18230;51.502;7.108;2023-05-01T11:31:47;20.90;92.40
31619;DHT22;18230;51.502;7.108;2023-05-01T11:36:49;20.80;93.40
31619;DHT22;18230;51.502;7.108;2023-05-01T11:41:50;20.70;93.40
31619;DHT22;18230;51.502;7.108;2023-05-01T11:47:08;20.70;93.80
31619;DHT22;18230;51.502;7.108;2023-05-01T11:52:09;20.90;94.60
31619;DHT22;18230;51.502;7.108;2023-05-01T11:57:14;21.00;93.00
31619;DHT22;18230;51.502;7.108;2023-05-01T12:02:24;21.10;93.70
31619;DHT22;18230;51.502;7.108;2023-05-01T12:07:24;21.20;91.70
31619;DHT22;18230;51.502;7.108;2023-05-01T12:12:25;20.90;92.60
31619;DHT22;18230;51.502;7.108;2023-05-01T12:17:26;21.00;92.90
31619;DHT22;18230;51.502;7.108;2023-05-01T12:22:29;21.10;92.70
31619;DHT22;18230;51.502;7.108;2023-05-01T12:27:29;21.00;92.30
31619;DHT22;18230;51.502;7.108;2023-05-01T12:32:33;21.00;93.00
31619;DHT22;18230;51.502;7.108;2023-05-01T12:37:33;21.10;92.50
31619;DHT22;18230;51.502;7.108;2023-05-01T12:42:34;21.10;92.30
31619;DHT22;18230;51.502;7.108;2023-05-01T12:47:36;21.20;92.70
31619;DHT22;18230;51.502;7.108;2023-05-01T12:52:37;21.40;92.10
31619;DHT22;18230;51.502;7.108;2023-05-01T12:58:04;21.60;91.00
31619;DHT22;18230;51.502;7.108;2023-05-01T13:03:05;21.70;90.00
31619;DHT22;18230;51.502;7.108;2023-05-01T13:08:06;21.70;89.60
31619;DHT22;18230;51.502;7.108;2023-05-01T13:13:06;21.50;86.80
31619;DHT22;18230;51.502;7.108;2023-05-01T13:18:07;21.60;85.50
31619;DHT22;18230;51.502;7.108;2023-05-01T13:23:11;21.50;84.90
31619;DHT22;18230;51.502;7.108;2023-05-01T13:28:18;21.50;84.60
31619;DHT22;18230;51.502;7.108;2023-05-01T13:33:20;21.70;84.60
31619;DHT22;18230;51.502;7.108;2023-05-01T13:38:20;21.90;84.40
31619;DHT22;18230;51.502;7.108;2023-05-01T13:43:24;22.00;83.40
31619;DHT22;18230;51.502;7.108;2023-05-01T13:48:24;21.80;82.60
31619;DHT22;18230;51.502;7.108;2023-05-01T13:53:25;21.80;81.80
31619;DHT22;18230;51.502;7.108;2023-05-01T13:58:27;21.80;80.80
31619;DHT22;18230;51.502;7.108;2023-05-01T14:03:39;21.80;82.10
31619;DHT22;18230;51.502;7.108;2023-05-01T14:08:40;21.70;82.30
31619;DHT22;18230;51.502;7.108;2023-05-01T14:13:44;21.70;81.30
31619;DHT22;18230;51.502;7.108;2023-05-01T14:18:46;21.60;81.20
31619;DHT22;18230;51.502;7.108;2023-05-01T14:23:47;21.50;81.60
31619;DHT22;18230;51.502;7.108;2023-05-01T14:28:48;21.30;83.20
31619;DHT22;18230;51.502;7.108;2023-05-01T14:33:53;21.10;83.80
31619;DHT22;18230;51.502;7.108;2023-05-01T14:38:59;20.80;90.00
31619;DHT22;18230;51.502;7.108;2023-05-01T14:44:01;20.10;97.10
31619;DHT22;18230;51.502;7.108;2023-05-01T14:49:03;19.30;99.90
31619;DHT22;18230;51.502;7.108;2023-05-01T14:54:03;18.60;99.90
31619;DHT22;18230;51.502;7.108;2023-05-01T14:59:08;18.30;99.80
31619;DHT22;18230;51.502;7.108;2023-05-01T15:04:08;18.40;99.90
31619;DHT22;18230;51.502;7.108;2023-05-01T15:09:11;18.60;98.70
31619;DHT22;18230;51.502;7.108;2023-05-01T15:14:15;18.20;99.90
31619;DHT22;18230;51.502;7.108;2023-05-01T15:19:16;17.70;99.90
31619;DHT22;18230;51.502;7.108;2023-05-01T15:24:19;17.10;99.90
31619;DHT22;18230;51.502;7.108;2023-05-01T15:29:20;16.80;99.90
31619;DHT22;18230;51.502;7.108;2023-05-01T15:34:20;16.40;99.90
31619;DHT22;18230;51.502;7.108;2023-05-01T15:39:21;16.40;99.90
31619;DHT22;18230;51.502;7.108;2023-05-01T15:44:22;16.40;99.90
31619;DHT22;18230;51.502;7.108;2023-05-01T15:49:23;16.30;99.90
31619;DHT22;18230;51.502;7.108;2023-05-01T15:54:23;16.20;99.90
31619;DHT22;18230;51.502;7.108;2023-05-01T15:59:25;16.20;99.90
31619;DHT22;18230;51.502;7.108;2023-05-01T16:04:26;16.10;99.90
31619;DHT22;18230;51.502;7.108;2023-05-01T16:09:31;16.00;99.90
31619;DHT22;18230;51.502;7.108;2023-05-01T16:14:34;16.10;99.90
31619;DHT22;18230;51.502;7.108;2023-05-01T16:19:38;15.90;99.90
31619;DHT22;18230;51.502;7.108;2023-05-01T16:24:39;15.70;99.90
31619;DHT22;18230;51.502;7.108;2023-05-01T16:29:40;15.60;99.90
31619;DHT22;18230;51.502;7.108;2023-05-01T16:34:41;15.70;99.90
31619;DHT22;18230;51.502;7.108;2023-05-01T16:39:45;15.80;99.90
31619;DHT22;18230;51.502;7.108;2023-05-01T16:44:51;15.80;99.90
31619;DHT22;18230;51.502;7.108;2023-05-01T16:49:56;15.90;99.90
31619;DHT22;18230;51.502;7.108;2023-05-01T16:54:58;15.90;99.90
31619;DHT22;18230;51.502;7.108;2023-05-01T16:59:59;16.00;99.90
31619;DHT22;18230;51.502;7.108;2023-05-01T17:05:01;16.10;99.90
31619;DHT22;18230;51.502;7.108;2023-05-01T17:10:02;16.10;99.90
31619;DHT22;18230;51.502;7.108;2023-05-01T17:15:03;16.00;99.90
31619;DHT22;18230;51.502;7.108;2023-05-01T17:20:06;16.00;99.90
31619;DHT22;18230;51.502;7.108;2023-05-01T17:25:07;16.10;99.90
31619;DHT22;18230;51.502;7.108;2023-05-01T17:30:11;16.30;99.90
31619;DHT22;18230;51.502;7.108;2023-05-01T17:35:15;16.40;99.90
31619;DHT22;18230;51.502;7.108;2023-05-01T17:40:19;16.60;99.90
31619;DHT22;18230;51.502;7.108;2023-05-01T17:45:20;16.60;99.90
31619;DHT22;18230;51.502;7.108;2023-05-01T17:50:21;16.40;99.90
31619;DHT22;18230;51.502;7.108;2023-05-01T17:55:23;16.30;99.90
31619;DHT22;18230;51.502;7.108;2023-05-01T18:00:24;16.30;99.90
31619;DHT22;18230;51.502;7.108;2023-05-01T18:05:26;16.40;99.90
31619;DHT22;18230;51.502;7.108;2023-05-01T18:10:27;16.50;99.90
31619;DHT22;18230;51.502;7.108;2023-05-01T18:15:30;16.60;99.90
31619;DHT22;18230;51.502;7.108;2023-05-01T18:20:31;16.60;99.90
31619;DHT22;18230;51.502;7.108;2023-05-01T18:25:32;16.60;99.90
31619;DHT22;18230;51.502;7.108;2023-05-01T18:30:32;16.30;99.90
31619;DHT22;18230;51.502;7.108;2023-05-01T18:35:36;16.20;99.90
31619;DHT22;18230;51.502;7.108;2023-05-01T18:40:43;16.00;99.90
31619;DHT22;18230;51.502;7.108;2023-05-01T18:45:46;15.90;99.90
31619;DHT22;18230;51.502;7.108;2023-05-01T18:50:55;15.70;99.90
31619;DHT22;18230;51.502;7.108;2023-05-01T18:55:57;15.60;99.90
31619;DHT22;18230;51.502;7.108;2023-05-01T19:00:58;15.50;99.90
31619;DHT22;18230;51.502;7.108;2023-05-01T19:06:01;15.40;99.90
31619;DHT22;18230;51.502;7.108;2023-05-01T19:11:03;15.20;99.90
31619;DHT22;18230;51.502;7.108;2023-05-01T19:16:04;15.10;99.90
31619;DHT22;18230;51.502;7.108;2023-05-01T19:21:05;15.00;99.90
31619;DHT22;18230;51.502;7.108;2023-05-01T19:26:06;14.90;99.90
31619;DHT22;18230;51.502;7.108;2023-05-01T19:31:07;15.00;99.90
31619;DHT22;18230;51.502;7.108;2023-05-01T19:36:08;14.90;99.90
31619;DHT22;18230;51.502;7.108;2023-05-01T19:41:10;14.90;99.90
31619;DHT22;18230;51.502;7.108;2023-05-01T19:46:11;14.90;99.90
31619;DHT22;18230;51.502;7.108;2023-05-01T19:51:11;14.90;99.90
31619;DHT22;18230;51.502;7.108;2023-05-01T19:56:12;14.90;99.90
31619;DHT22;18230;51.502;7.108;2023-05-01T20:01:13;14.90;99.90
31619;DHT22;18230;51.502;7.108;2023-05-01T20:06:14;14.90;99.90
31619;DHT22;18230;51.502;7.108;2023-05-01T20:11:15;14.90;99.90
31619;DHT22;18230;51.502;7.108;2023-05-01T20:16:15;14.90;99.90
31619;DHT22;18230;51.502;7.108;2023-05-01T20:21:16;14.80;99.90
31619;DHT22;18230;51.502;7.108;2023-05-01T20:26:17;14.70;99.90
31619;DHT22;18230;51.502;7.108;2023-05-01T20:31:18;14.80;99.90
31619;DHT22;18230;51.502;7.108;2023-05-01T20:36:19;14.80;99.90
31619;DHT22;18230;51.502;7.108;2023-05-01T20:41:19;14.70;99.90
31619;DHT22;18230;51.502;7.108;2023-05-01T20:46:21;14.50;99.90
31619;DHT22;18230;51.502;7.108;2023-05-01T20:51:22;14.40;99.90
31619;DHT22;18230;51.502;7.108;2023-05-01T20:56:23;14.40;99.90
31619;DHT22;18230;51.502;7.108;2023-05-01T21:01:23;14.20;99.90
31619;DHT22;18230;51.502;7.108;2023-05-01T21:06:25;14.10;99.90
31619;DHT22;18230;51.502;7.108;2023-05-01T21:11:26;14.10;99.90
31619;DHT22;18230;51.502;7.108;2023-05-01T21:16:27;14.00;99.90
31619;DHT22;18230;51.502;7.108;2023-05-01T21:21:28;13.90;99.90
31619;DHT22;18230;51.502;7.108;2023-05-01T21:26:29;14.00;99.90
31619;DHT22;18230;51.502;7.108;2023-05-01T21:31:30;14.00;99.90
31619;DHT22;18230;51.502;7.108;2023-05-01T21:36:42;13.90;99.90
31619;DHT22;18230;51.502;7.108;2023-05-01T21:41:47;13.80;99.90
31619;DHT22;18230;51.502;7.108;2023-05-01T21:46:49;13.80;99.90
31619;DHT22;18230;51.502;7.108;2023-05-01T21:51:52;13.80;99.90
31619;DHT22;18230;51.502;7.108;2023-05-01T21:56:58;13.80;99.90
31619;DHT22;18230;51.502;7.108;2023-05-01T22:02:06;13.80;99.90
31619;DHT22;18230;51.502;7.108;2023-05-01T22:07:07;13.70;99.90
31619;DHT22;18230;51.502;7.108;2023-05-01T22:12:08;13.80;99.90
31619;DHT22;18230;51.502;7.108;2023-05-01T22:17:09;13.80;99.90
31619;DHT22;18230;51.502;7.108;2023-05-01T22:22:10;13.70;99.90
31619;DHT22;18230;51.502;7.108;2023-05-01T22:27:10;13.70;99.90
31619;DHT22;18230;51.502;7.108;2023-05-01T22:32:11;13.60;99.90
31619;DHT22;18230;51.502;7.108;2023-05-01T22:37:12;13.50;99.90
31619;DHT22;18230;51.502;7.108;2023-05-01T22:42:12;13.50;99.90
31619;DHT22;18230;51.502;7.108;2023-05-01T22:47:13;13.40;99.90
31619;DHT22;18230;51.502;7.108;2023-05-01T22:52:14;13.40;99.90
31619;DHT22;18230;51.502;7.108;2023-05-01T22:57:15;13.40;99.90
31619;DHT22;18230;51.502;7.108;2023-05-01T23:02:16;13.30;99.90
31619;DHT22;18230;51.502;7.108;2023-05-01T23:07:18;13.30;99.90
31619;DHT22;18230;51.502;7.108;2023-05-01T23:12:19;13.30;99.90
31619;DHT22;18230;51.502;7.108;2023-05-01T23:17:25;13.30;99.90
31619;DHT22;18230;51.502;7.108;2023-05-01T23:22:29;13.30;99.90
31619;DHT22;18230;51.502;7.108;2023-05-01T23:27:32;13.30;99.90
31619;DHT22;18230;51.502;7.108;2023-05-01T23:32:33;13.30;99.90
31619;DHT22;18230;51.502;7.108;2023-05-01T23:37:34;13.30;99.90
31619;DHT22;18230;51.502;7.108;2023-05-01T23:42:35;13.20;99.90
31619;DHT22;18230;51.502;7.108;2023-05-01T23:47:37;13.10;99.90
31619;DHT22;18230;51.502;7.108;2023-05-01T23:52:38;13.00;99.90
31619;DHT22;18230;51.502;7.108;2023-05-01T23:57:39;12.90;99.90
